Time;durP1;ratioP1;P1;durP2;ratioP2;P2;SDS_P1;SDS_P2;PMS_P1;PMS_P2;Temp;Humidity;BMP_temperature;BMP_pressure;BME280_temperature;BME280_humidity;BME280_pressure;Samples;Min_cycle;Max_cycle;Signal;HPM_P1;HPM_P2
2021/08/19 00:00:39;;;;;;;2.50;2.30;;;;;;;;;;4921122;29;20654;-87
2021/08/19 00:03:07;;;;;;;2.50;2.30;;;;;;;;;;4923411;29;20214;-87
2021/08/19 00:05:34;;;;;;;2.17;2.08;;;;;;;;;;4923635;29;20729;-87
2021/08/19 00:08:03;;;;;;;2.20;2.05;;;;;;;;;;4924149;29;20706;-86
2021/08/19 00:10:31;;;;;;;2.70;2.50;;;;;;;;;;4924065;29;20179;-87
2021/08/19 00:12:59;;;;;;;2.72;2.53;;;;;;;;;;4923795;29;20297;-87
2021/08/19 00:15:27;;;;;;;2.92;2.72;;;;;;;;;;4922678;29;20218;-87
2021/08/19 00:17:56;;;;;;;2.90;2.70;;;;;;;;;;4921336;29;20213;-87
2021/08/19 00:20:24;;;;;;;2.75;2.55;;;;;;;;;;4919862;29;20672;-87
2021/08/19 00:22:52;;;;;;;2.95;2.30;;;;;;;;;;4920620;29;20186;-87
2021/08/19 00:25:19;;;;;;;3.08;2.38;;;;;;;;;;4919904;29;20588;-87
2021/08/19 00:27:47;;;;;;;2.35;2.22;;;;;;;;;;4920041;29;20226;-86
2021/08/19 00:30:15;;;;;;;2.03;1.92;;;;;;;;;;4919439;29;20596;-86
2021/08/19 00:32:43;;;;;;;2.63;2.42;;;;;;;;;;4919297;29;20183;-87
2021/08/19 00:35:13;;;;;;;2.67;2.47;;;;;;;;;;4919205;29;20245;-87
2021/08/19 00:37:40;;;;;;;2.40;2.20;;;;;;;;;;4918757;29;20755;-86
2021/08/19 00:40:10;;;;;;;2.70;2.50;;;;;;;;;;4918737;29;20198;-87
2021/08/19 00:42:38;;;;;;;2.85;2.65;;;;;;;;;;4918741;29;20743;-89
2021/08/19 00:45:08;;;;;;;2.78;2.58;;;;;;;;;;4917854;29;20241;-88
2021/08/19 00:47:38;;;;;;;2.42;2.33;;;;;;;;;;4918168;29;20254;-86
2021/08/19 00:50:09;;;;;;;2.58;2.38;;;;;;;;;;4918023;29;20275;-89
2021/08/19 00:52:41;;;;;;;2.35;2.15;;;;;;;;;;4915257;29;20218;-88
2021/08/19 00:55:22;;;;;;;2.47;2.30;;;;;;;;;;4899466;29;20803;-88
2021/08/19 00:57:51;;;;;;;2.53;2.33;;;;;;;;;;4899620;29;20196;-88
2021/08/19 01:00:20;;;;;;;2.60;2.40;;;;;;;;;;4899647;29;20199;-89
2021/08/19 01:02:57;;;;;;;2.60;2.40;;;;;;;;;;4899162;29;20187;-89
2021/08/19 01:05:40;;;;;;;2.67;2.47;;;;;;;;;;4899590;29;20227;-90
2021/08/19 01:08:11;;;;;;;2.70;2.50;;;;;;;;;;4899140;29;20229;-89
2021/08/19 01:10:40;;;;;;;2.25;2.15;;;;;;;;;;4899500;29;20203;-89
2021/08/19 01:13:08;;;;;;;5.10;3.47;;;;;;;;;;4899071;29;20298;-89
2021/08/19 01:15:37;;;;;;;2.83;2.63;;;;;;;;;;4899237;29;20238;-89
2021/08/19 01:18:11;;;;;;;2.08;1.98;;;;;;;;;;4899300;29;20198;-89
2021/08/19 01:20:38;;;;;;;2.13;2.03;;;;;;;;;;4899268;29;20207;-89
2021/08/19 01:23:06;;;;;;;2.05;1.95;;;;;;;;;;4899028;29;20217;-89
2021/08/19 01:25:37;;;;;;;2.67;2.47;;;;;;;;;;4898852;29;20313;-89
2021/08/19 01:28:07;;;;;;;4.00;3.60;;;;;;;;;;4899192;29;20211;-89
2021/08/19 01:30:37;;;;;;;4.40;2.58;;;;;;;;;;4898915;29;20565;-89
2021/08/19 01:33:05;;;;;;;2.90;2.70;;;;;;;;;;4899347;29;20218;-89
2021/08/19 01:35:46;;;;;;;2.75;2.55;;;;;;;;;;4898837;29;20231;-89
2021/08/19 01:38:35;;;;;;;2.60;2.47;;;;;;;;;;4879986;29;20719;-89
2021/08/19 01:41:14;;;;;;;3.40;3.10;;;;;;;;;;4880470;29;20267;-88
2021/08/19 01:43:46;;;;;;;4.15;3.25;;;;;;;;;;4880288;29;20198;-88
2021/08/19 01:46:17;;;;;;;2.58;2.38;;;;;;;;;;4880081;29;20707;-89
2021/08/19 01:48:51;;;;;;;2.42;2.28;;;;;;;;;;4880133;29;20219;-91
2021/08/19 01:51:21;;;;;;;2.80;2.60;;;;;;;;;;4880463;29;20523;-88
2021/08/19 01:53:49;;;;;;;2.97;2.78;;;;;;;;;;4879855;29;20659;-88
2021/08/19 01:56:19;;;;;;;4.00;2.92;;;;;;;;;;4879839;29;20235;-87
2021/08/19 01:58:55;;;;;;;2.88;2.67;;;;;;;;;;4885045;29;20584;-91
2021/08/19 02:01:25;;;;;;;3.35;3.15;;;;;;;;;;4898423;29;20213;-89
2021/08/19 02:03:54;;;;;;;2.65;2.47;;;;;;;;;;4897298;29;20199;-88
2021/08/19 02:06:21;;;;;;;2.28;1.95;;;;;;;;;;4896220;29;20740;-89
2021/08/19 02:08:50;;;;;;;2.38;2.22;;;;;;;;;;4898136;29;20218;-88
2021/08/19 02:11:20;;;;;;;2.28;2.13;;;;;;;;;;4897628;29;20315;-88
2021/08/19 02:13:48;;;;;;;2.55;2.35;;;;;;;;;;4898279;29;20255;-88
2021/08/19 02:16:18;;;;;;;3.08;2.88;;;;;;;;;;4897991;29;20736;-88
2021/08/19 02:18:46;;;;;;;2.92;2.72;;;;;;;;;;4898412;29;20195;-88
2021/08/19 02:21:14;;;;;;;2.80;2.60;;;;;;;;;;4899378;29;20635;-89
2021/08/19 02:23:48;;;;;;;3.03;2.80;;;;;;;;;;4898695;29;20194;-89
2021/08/19 02:26:17;;;;;;;3.00;2.80;;;;;;;;;;4899010;29;20237;-88
2021/08/19 02:28:46;;;;;;;3.03;2.75;;;;;;;;;;4898132;29;20733;-88
2021/08/19 02:31:13;;;;;;;3.00;2.80;;;;;;;;;;4889543;29;20208;-89
2021/08/19 02:33:53;;;;;;;2.90;2.70;;;;;;;;;;4879729;29;20549;-89
2021/08/19 02:36:46;;;;;;;2.38;2.17;;;;;;;;;;4882847;29;20242;-89
2021/08/19 02:39:21;;;;;;;2.60;2.40;;;;;;;;;;4879425;29;20212;-89
2021/08/19 02:41:52;;;;;;;2.42;2.22;;;;;;;;;;4879016;29;20206;-88
2021/08/19 02:44:19;;;;;;;3.00;2.80;;;;;;;;;;4879551;29;20217;-89
2021/08/19 02:46:48;;;;;;;2.75;2.55;;;;;;;;;;4879271;29;20194;-88
2021/08/19 02:49:17;;;;;;;3.13;2.35;;;;;;;;;;4879460;29;20228;-88
2021/08/19 02:51:51;;;;;;;2.10;2.00;;;;;;;;;;4879144;29;20194;-89
2021/08/19 02:54:18;;;;;;;2.38;2.20;;;;;;;;;;4879466;29;20278;-89
2021/08/19 02:56:46;;;;;;;3.42;3.22;;;;;;;;;;4879398;29;20188;-89
2021/08/19 02:59:14;;;;;;;2.63;2.42;;;;;;;;;;4889186;29;20234;-89
2021/08/19 03:01:43;;;;;;;2.63;2.42;;;;;;;;;;4897657;29;20292;-88
2021/08/19 03:04:11;;;;;;;2.28;2.17;;;;;;;;;;4897059;29;20191;-89
2021/08/19 03:06:46;;;;;;;2.40;2.22;;;;;;;;;;4897441;29;20217;-88
2021/08/19 03:09:14;;;;;;;1.73;1.63;;;;;;;;;;4897003;29;20231;-88
2021/08/19 03:11:42;;;;;;;1.80;1.70;;;;;;;;;;4897065;29;20187;-88
2021/08/19 03:14:15;;;;;;;2.28;2.15;;;;;;;;;;4897053;29;20571;-89
2021/08/19 03:16:43;;;;;;;2.72;2.53;;;;;;;;;;4897617;29;20192;-89
2021/08/19 03:19:11;;;;;;;2.30;2.20;;;;;;;;;;4897245;29;20188;-89
2021/08/19 03:21:48;;;;;;;2.40;2.20;;;;;;;;;;4897764;29;20569;-89
2021/08/19 03:24:16;;;;;;;1.80;1.70;;;;;;;;;;4897600;29;20206;-88
2021/08/19 03:26:51;;;;;;;2.42;2.22;;;;;;;;;;4897416;29;20191;-88
2021/08/19 03:29:18;;;;;;;1.90;1.80;;;;;;;;;;4897493;29;20212;-88
2021/08/19 03:31:47;;;;;;;2.30;2.10;;;;;;;;;;4897669;29;20630;-88
2021/08/19 03:34:14;;;;;;;2.13;2.03;;;;;;;;;;4897302;29;20184;-89
2021/08/19 03:36:41;;;;;;;2.60;2.40;;;;;;;;;;4898043;29;20203;-89
2021/08/19 03:39:10;;;;;;;2.15;2.03;;;;;;;;;;4915993;29;20206;-89
2021/08/19 03:41:43;;;;;;;2.70;2.50;;;;;;;;;;4916123;29;20179;-89
2021/08/19 03:44:15;;;;;;;2.72;1.95;;;;;;;;;;4915893;29;20281;-89
2021/08/19 03:46:44;;;;;;;1.70;1.60;;;;;;;;;;4916201;29;20195;-89
2021/08/19 03:49:17;;;;;;;1.98;1.88;;;;;;;;;;4916053;29;20211;-89
2021/08/19 03:51:46;;;;;;;1.80;1.70;;;;;;;;;;4916115;29;20215;-89
2021/08/19 03:54:17;;;;;;;1.85;1.75;;;;;;;;;;4918106;29;20190;-88
2021/08/19 03:56:46;;;;;;;2.00;1.90;;;;;;;;;;4920031;29;20570;-88
2021/08/19 03:59:22;;;;;;;2.13;2.00;;;;;;;;;;4919673;29;20194;-89
2021/08/19 04:01:49;;;;;;;2.00;1.90;;;;;;;;;;4919542;29;20206;-89
2021/08/19 04:04:17;;;;;;;1.95;1.85;;;;;;;;;;4919729;29;20197;-85
2021/08/19 04:06:45;;;;;;;2.15;2.05;;;;;;;;;;4919936;29;20213;-85
2021/08/19 04:09:13;;;;;;;2.05;1.95;;;;;;;;;;4919316;29;20226;-86
2021/08/19 04:11:43;;;;;;;1.63;1.52;;;;;;;;;;4919754;29;20210;-85
2021/08/19 04:14:11;;;;;;;2.35;2.25;;;;;;;;;;4908708;29;20207;-85
2021/08/19 04:16:38;;;;;;;1.77;1.67;;;;;;;;;;4900812;29;20191;-85
2021/08/19 04:19:05;;;;;;;2.65;2.45;;;;;;;;;;4901143;29;20191;-85
2021/08/19 04:21:33;;;;;;;2.45;2.25;;;;;;;;;;4901079;29;20187;-85
2021/08/19 04:24:01;;;;;;;2.65;2.45;;;;;;;;;;4900635;29;20226;-85
2021/08/19 04:26:28;;;;;;;2.17;2.08;;;;;;;;;;4899773;29;20223;-85
2021/08/19 04:28:57;;;;;;;2.63;2.42;;;;;;;;;;4900190;29;20667;-85
2021/08/19 04:31:25;;;;;;;2.70;2.50;;;;;;;;;;4900415;29;20740;-85
2021/08/19 04:33:53;;;;;;;2.10;1.98;;;;;;;;;;4900474;29;20203;-85
2021/08/19 04:36:21;;;;;;;2.35;2.25;;;;;;;;;;4899990;29;20219;-85
2021/08/19 04:38:48;;;;;;;2.72;2.53;;;;;;;;;;4900159;29;20231;-85
2021/08/19 04:41:15;;;;;;;2.90;2.70;;;;;;;;;;4900921;29;20192;-86
2021/08/19 04:43:43;;;;;;;3.08;2.88;;;;;;;;;;4918952;29;20191;-86
2021/08/19 04:46:16;;;;;;;3.50;2.10;;;;;;;;;;4919327;29;20234;-86
2021/08/19 04:48:44;;;;;;;2.10;2.00;;;;;;;;;;4919706;29;20667;-86
2021/08/19 04:51:12;;;;;;;2.45;2.25;;;;;;;;;;4918453;29;20706;-86
2021/08/19 04:53:40;;;;;;;2.67;2.47;;;;;;;;;;4899888;29;20673;-86
2021/08/19 04:56:08;;;;;;;2.03;1.92;;;;;;;;;;4899988;29;20229;-85
2021/08/19 04:58:37;;;;;;;6.75;2.95;;;;;;;;;;4899894;29;20195;-86
2021/08/19 05:01:04;;;;;;;3.30;3.05;;;;;;;;;;4899681;29;20191;-86
2021/08/19 05:03:33;;;;;;;2.63;2.42;;;;;;;;;;4899538;29;20191;-85
2021/08/19 05:06:04;;;;;;;2.35;2.22;;;;;;;;;;4899595;29;20706;-86
2021/08/19 05:08:31;;;;;;;2.33;2.10;;;;;;;;;;4900160;29;20212;-86
2021/08/19 05:10:59;;;;;;;2.60;2.42;;;;;;;;;;4899900;29;20800;-86
2021/08/19 05:13:26;;;;;;;2.00;1.90;;;;;;;;;;4899614;29;20215;-85
2021/08/19 05:15:54;;;;;;;1.92;1.83;;;;;;;;;;4908356;29;20735;-86
2021/08/19 05:18:21;;;;;;;1.60;1.50;;;;;;;;;;4919040;29;20195;-86
2021/08/19 05:20:50;;;;;;;2.13;1.92;;;;;;;;;;4917741;29;20560;-86
2021/08/19 05:23:18;;;;;;;1.60;1.50;;;;;;;;;;4917695;29;20187;-85
2021/08/19 05:25:45;;;;;;;2.00;1.90;;;;;;;;;;4917706;29;20230;-87
2021/08/19 05:28:12;;;;;;;1.25;1.23;;;;;;;;;;4918233;29;20199;-87
2021/08/19 05:30:41;;;;;;;1.58;1.48;;;;;;;;;;4917668;29;20218;-87
2021/08/19 05:33:08;;;;;;;2.10;2.00;;;;;;;;;;4914541;29;20190;-88
2021/08/19 05:35:36;;;;;;;1.85;1.70;;;;;;;;;;4917268;29;20222;-87
2021/08/19 05:38:05;;;;;;;1.90;1.80;;;;;;;;;;4928259;29;20252;-86
2021/08/19 05:40:32;;;;;;;2.08;1.98;;;;;;;;;;4921389;29;20206;-87
2021/08/19 05:43:00;;;;;;;2.17;2.08;;;;;;;;;;4916420;29;20202;-85
2021/08/19 05:45:27;;;;;;;2.03;1.92;;;;;;;;;;4917222;29;20238;-86
2021/08/19 05:47:57;;;;;;;1.77;1.67;;;;;;;;;;4917439;29;20205;-86
2021/08/19 05:50:25;;;;;;;1.85;1.75;;;;;;;;;;4917197;29;20248;-87
2021/08/19 05:52:52;;;;;;;1.73;1.63;;;;;;;;;;4913102;29;20195;-86
2021/08/19 05:55:22;;;;;;;1.67;1.58;;;;;;;;;;4916627;29;20230;-86
2021/08/19 05:57:51;;;;;;;1.85;1.75;;;;;;;;;;4917416;29;20576;-86
2021/08/19 06:00:21;;;;;;;2.38;2.28;;;;;;;;;;4916627;29;20210;-87
2021/08/19 06:02:48;;;;;;;2.30;1.90;;;;;;;;;;4917896;29;20614;-86
2021/08/19 06:05:16;;;;;;;1.58;1.48;;;;;;;;;;4917499;29;20234;-85
2021/08/19 06:07:43;;;;;;;1.65;1.55;;;;;;;;;;4917124;29;20195;-85
2021/08/19 06:10:12;;;;;;;1.67;1.58;;;;;;;;;;4926137;29;20195;-86
2021/08/19 06:12:43;;;;;;;1.80;1.70;;;;;;;;;;4935915;29;20269;-84
2021/08/19 06:15:11;;;;;;;2.55;2.35;;;;;;;;;;4935783;29;20713;-86
2021/08/19 06:17:39;;;;;;;6.60;3.13;;;;;;;;;;4935166;29;20210;-86
2021/08/19 06:20:09;;;;;;;3.00;2.22;;;;;;;;;;4927549;29;20210;-86
2021/08/19 06:22:36;;;;;;;1.63;1.50;;;;;;;;;;4917059;29;20202;-85
2021/08/19 06:25:05;;;;;;;2.05;1.95;;;;;;;;;;4916812;29;20226;-86
2021/08/19 06:27:33;;;;;;;2.00;1.90;;;;;;;;;;4916753;29;20650;-86
2021/08/19 06:30:03;;;;;;;1.83;1.73;;;;;;;;;;4924671;29;20223;-86
2021/08/19 06:32:32;;;;;;;1.95;1.85;;;;;;;;;;4935497;29;20206;-87
2021/08/19 06:34:59;;;;;;;11.63;8.98;;;;;;;;;;4935786;29;20237;-87
2021/08/19 06:37:27;;;;;;;45.88;24.90;;;;;;;;;;4935480;29;20238;-86
2021/08/19 06:39:54;;;;;;;92.15;48.40;;;;;;;;;;4921937;29;20207;-87
2021/08/19 06:42:24;;;;;;;108.13;51.15;;;;;;;;;;4897659;29;20209;-86
2021/08/19 06:44:52;;;;;;;125.43;68.85;;;;;;;;;;4897994;29;20231;-86
2021/08/19 06:47:22;;;;;;;74.55;47.35;;;;;;;;;;4897811;29;20202;-86
2021/08/19 06:49:50;;;;;;;43.08;27.08;;;;;;;;;;4909961;29;20190;-86
2021/08/19 06:52:17;;;;;;;24.98;16.60;;;;;;;;;;4935601;29;20231;-86
2021/08/19 06:54:45;;;;;;;13.68;9.57;;;;;;;;;;4935370;29;20627;-85
2021/08/19 06:57:12;;;;;;;8.77;6.38;;;;;;;;;;4935641;29;20193;-85
2021/08/19 06:59:39;;;;;;;5.88;4.90;;;;;;;;;;4930119;29;20214;-86
2021/08/19 07:02:07;;;;;;;4.00;3.60;;;;;;;;;;4916197;29;20217;-86
2021/08/19 07:04:36;;;;;;;2.50;2.30;;;;;;;;;;4916204;29;20229;-85
2021/08/19 07:07:04;;;;;;;2.25;2.05;;;;;;;;;;4916214;29;20187;-85
2021/08/19 07:09:31;;;;;;;2.45;2.30;;;;;;;;;;4920055;29;20217;-85
2021/08/19 07:12:00;;;;;;;2.45;2.28;;;;;;;;;;4935352;29;20590;-86
2021/08/19 07:14:27;;;;;;;2.13;2.00;;;;;;;;;;4935806;29;20598;-86
2021/08/19 07:17:29;;;;;;;2.08;1.95;;;;;;;;;;4935650;29;20190;-86
2021/08/19 07:20:01;;;;;;;1.67;1.58;;;;;;;;;;4927652;29;20208;-87
2021/08/19 07:22:28;;;;;;;2.55;2.35;;;;;;;;;;4917022;29;20206;-85
2021/08/19 07:24:56;;;;;;;2.50;2.30;;;;;;;;;;4917476;29;20743;-87
2021/08/19 07:27:44;;;;;;;2.30;2.10;;;;;;;;;;4919054;29;20193;-86
2021/08/19 07:30:13;;;;;;;2.35;2.25;;;;;;;;;;4929614;29;20194;-87
2021/08/19 07:32:42;;;;;;;2.45;2.25;;;;;;;;;;4940065;29;20270;-86
2021/08/19 07:35:27;;;;;;;2.83;2.63;;;;;;;;;;4938980;29;20225;-86
2021/08/19 07:37:56;;;;;;;2.92;2.70;;;;;;;;;;4939083;29;20733;-86
2021/08/19 07:40:28;;;;;;;2.72;2.53;;;;;;;;;;4917527;29;20206;-86
2021/08/19 07:42:59;;;;;;;2.10;1.90;;;;;;;;;;4900634;29;20189;-86
2021/08/19 07:45:30;;;;;;;2.67;2.47;;;;;;;;;;4900855;29;20616;-86
2021/08/19 07:47:58;;;;;;;2.22;2.03;;;;;;;;;;4900927;29;20196;-87
2021/08/19 07:50:27;;;;;;;1.80;1.70;;;;;;;;;;4911146;29;20210;-84
2021/08/19 07:52:54;;;;;;;2.10;1.90;;;;;;;;;;4919708;29;20210;-85
2021/08/19 07:55:22;;;;;;;1.90;1.75;;;;;;;;;;4919932;29;20233;-85
2021/08/19 07:57:51;;;;;;;1.67;1.58;;;;;;;;;;4919511;29;20202;-85
2021/08/19 08:00:21;;;;;;;1.33;1.23;;;;;;;;;;4929497;29;20200;-86
2021/08/19 08:02:51;;;;;;;1.38;1.27;;;;;;;;;;4939034;29;20197;-83
2021/08/19 08:05:18;;;;;;;1.15;1.08;;;;;;;;;;4939316;29;20221;-84
2021/08/19 08:07:51;;;;;;;1.20;1.10;;;;;;;;;;4939003;29;20190;-85
2021/08/19 08:10:19;;;;;;;1.30;1.20;;;;;;;;;;4918474;29;20203;-84
2021/08/19 08:12:46;;;;;;;1.35;1.25;;;;;;;;;;4900704;29;20222;-84
2021/08/19 08:15:29;;;;;;;1.45;1.35;;;;;;;;;;4901042;29;20234;-85
2021/08/19 08:17:59;;;;;;;1.30;1.20;;;;;;;;;;4900802;29;20191;-85
2021/08/19 08:20:26;;;;;;;1.33;1.20;;;;;;;;;;4911625;29;20564;-84
2021/08/19 08:22:55;;;;;;;1.75;1.65;;;;;;;;;;4919366;29;20634;-83
2021/08/19 08:25:23;;;;;;;1.40;1.30;;;;;;;;;;4919428;29;20231;-85
2021/08/19 08:28:04;;;;;;;1.30;1.20;;;;;;;;;;4919288;29;20191;-85
2021/08/19 08:30:32;;;;;;;1.40;1.30;;;;;;;;;;4919760;29;20210;-85
2021/08/19 08:53:14;;;;;;;1.13;1.08;;;;;;;;;;4898340;29;20249;-85
2021/08/19 08:55:45;;;;;;;1.70;1.60;;;;;;;;;;4919154;29;20226;-84
2021/08/19 08:58:23;;;;;;;1.50;1.40;;;;;;;;;;4919620;29;20186;-84
2021/08/19 09:00:51;;;;;;;1.50;1.40;;;;;;;;;;4919038;29;20205;-84
2021/08/19 09:03:25;;;;;;;1.60;1.50;;;;;;;;;;4919117;29;20198;-85
2021/08/19 09:05:53;;;;;;;1.75;1.63;;;;;;;;;;4918919;29;20217;-86
2021/08/19 09:08:25;;;;;;;1.83;1.73;;;;;;;;;;4918966;29;20194;-85
2021/08/19 09:10:55;;;;;;;0.90;0.90;;;;;;;;;;4918830;29;20558;-85
2021/08/19 09:13:24;;;;;;;1.10;1.10;;;;;;;;;;4918093;29;20226;-85
2021/08/19 09:15:53;;;;;;;1.60;1.50;;;;;;;;;;4918055;29;20233;-84
2021/08/19 09:18:32;;;;;;;1.40;1.30;;;;;;;;;;4918097;29;20649;-84
2021/08/19 09:21:00;;;;;;;1.48;1.38;;;;;;;;;;4918063;29;20201;-85
2021/08/19 09:23:29;;;;;;;1.67;1.58;;;;;;;;;;4917288;29;20749;-84
2021/08/19 09:25:59;;;;;;;0.82;0.82;;;;;;;;;;4918073;29;20426;-85
2021/08/19 09:28:29;;;;;;;1.70;1.60;;;;;;;;;;4918052;29;20190;-85
2021/08/19 09:31:00;;;;;;;1.50;1.38;;;;;;;;;;4918168;29;20195;-86
2021/08/19 09:33:30;;;;;;;1.10;1.00;;;;;;;;;;4916721;29;20234;-84
2021/08/19 09:35:59;;;;;;;1.00;1.00;;;;;;;;;;4917532;29;20234;-85
2021/08/19 09:38:36;;;;;;;1.23;0.90;;;;;;;;;;4917965;29;20198;-84
2021/08/19 09:41:11;;;;;;;0.82;0.82;;;;;;;;;;4917879;29;20198;-85
2021/08/19 09:43:42;;;;;;;0.80;0.80;;;;;;;;;;4918060;29;20196;-86
2021/08/19 09:46:12;;;;;;;0.73;0.73;;;;;;;;;;4917651;29;20223;-86
2021/08/19 09:48:39;;;;;;;1.00;1.00;;;;;;;;;;4903778;29;20211;-85
2021/08/19 09:51:19;;;;;;;1.42;1.33;;;;;;;;;;4914907;29;20294;-84
2021/08/19 09:53:50;;;;;;;1.90;1.80;;;;;;;;;;4917629;29;20244;-84
2021/08/19 09:56:29;;;;;;;1.50;1.40;;;;;;;;;;4917726;29;20325;-86
2021/08/19 09:59:17;;;;;;;1.42;1.33;;;;;;;;;;4916914;29;20198;-84
2021/08/19 10:01:44;;;;;;;1.92;1.70;;;;;;;;;;4898556;29;20202;-85
2021/08/19 10:04:12;;;;;;;2.08;1.88;;;;;;;;;;4898105;29;20194;-84
2021/08/19 10:06:39;;;;;;;2.70;1.40;;;;;;;;;;4917315;29;20207;-85
2021/08/19 10:09:08;;;;;;;2.42;2.22;;;;;;;;;;4917623;29;20202;-84
2021/08/19 10:11:36;;;;;;;1.83;1.70;;;;;;;;;;4917442;29;20207;-85
2021/08/19 10:14:03;;;;;;;2.58;2.38;;;;;;;;;;4917484;29;20569;-84
2021/08/19 10:16:32;;;;;;;1.35;1.27;;;;;;;;;;4917535;29;20572;-85
2021/08/19 10:19:01;;;;;;;1.50;1.40;;;;;;;;;;4917765;29;20195;-84
2021/08/19 10:21:30;;;;;;;1.80;1.65;;;;;;;;;;4917364;29;20206;-86
2021/08/19 10:23:58;;;;;;;2.13;1.98;;;;;;;;;;4917059;29;20194;-84
2021/08/19 10:26:27;;;;;;;2.08;1.98;;;;;;;;;;4917330;29;20230;-85
2021/08/19 10:28:57;;;;;;;2.58;2.40;;;;;;;;;;4917577;29;20695;-85
2021/08/19 10:31:41;;;;;;;2.25;2.15;;;;;;;;;;4916827;29;20212;-84
2021/08/19 10:34:10;;;;;;;2.45;2.25;;;;;;;;;;4916260;29;20293;-88
2021/08/19 10:36:55;;;;;;;2.22;2.03;;;;;;;;;;4916932;29;20289;-85
2021/08/19 10:39:33;;;;;;;3.63;2.58;;;;;;;;;;4916483;29;20252;-84
2021/08/19 10:42:02;;;;;;;2.55;2.35;;;;;;;;;;4916717;29;20187;-85
2021/08/19 10:44:32;;;;;;;2.28;2.17;;;;;;;;;;4916366;29;20724;-85
2021/08/19 10:47:00;;;;;;;2.58;2.40;;;;;;;;;;4916773;29;20190;-86
2021/08/19 10:49:40;;;;;;;2.10;2.00;;;;;;;;;;4916659;29;20195;-86
2021/08/19 10:52:30;;;;;;;2.13;2.03;;;;;;;;;;4916173;29;20654;-84
2021/08/19 10:55:19;;;;;;;2.40;2.20;;;;;;;;;;4916266;29;20234;-85
2021/08/19 10:57:54;;;;;;;2.40;2.20;;;;;;;;;;4898118;29;20223;-83
2021/08/19 11:00:42;;;;;;;2.05;1.95;;;;;;;;;;4913153;29;20214;-84
2021/08/19 11:03:46;;;;;;;3.05;2.85;;;;;;;;;;4911012;29;20198;-82
2021/08/19 11:06:17;;;;;;;2.28;2.17;;;;;;;;;;4916332;29;20230;-84
2021/08/19 11:08:52;;;;;;;2.28;2.17;;;;;;;;;;4915916;29;20206;-84
2021/08/19 11:11:32;;;;;;;2.58;2.38;;;;;;;;;;4916891;29;20308;-84
2021/08/19 11:14:08;;;;;;;2.00;1.83;;;;;;;;;;4897915;29;20211;-84
2021/08/19 11:16:37;;;;;;;2.80;2.60;;;;;;;;;;4916422;29;20212;-87
2021/08/19 11:19:20;;;;;;;3.60;3.25;;;;;;;;;;4916274;29;20599;-83
2021/08/19 11:21:53;;;;;;;2.78;2.58;;;;;;;;;;4916165;29;20558;-85
2021/08/19 11:24:23;;;;;;;3.58;3.28;;;;;;;;;;4917068;29;20627;-85
2021/08/19 11:27:00;;;;;;;2.40;2.20;;;;;;;;;;4916863;29;20191;-84
2021/08/19 11:29:32;;;;;;;3.03;2.72;;;;;;;;;;4916339;29;20277;-85
2021/08/19 11:32:05;;;;;;;2.63;2.42;;;;;;;;;;4916453;29;20226;-84
2021/08/19 11:34:33;;;;;;;3.03;2.83;;;;;;;;;;4916178;29;20230;-86
2021/08/19 11:37:01;;;;;;;2.63;2.42;;;;;;;;;;4916166;29;20210;-85
2021/08/19 11:39:30;;;;;;;3.55;3.33;;;;;;;;;;4900187;29;20229;-85
2021/08/19 11:41:59;;;;;;;3.42;3.13;;;;;;;;;;4916306;29;20238;-84
2021/08/19 11:44:27;;;;;;;3.45;3.20;;;;;;;;;;4916331;29;20269;-86
2021/08/19 11:47:03;;;;;;;3.47;3.17;;;;;;;;;;4916364;29;20186;-86
2021/08/19 11:49:32;;;;;;;4.30;3.95;;;;;;;;;;4915983;29;20191;-85
2021/08/19 11:52:06;;;;;;;4.28;3.95;;;;;;;;;;4915517;29;20395;-86
2021/08/19 11:54:44;;;;;;;3.97;3.58;;;;;;;;;;4911089;29;20229;-85
2021/08/19 11:57:22;;;;;;;3.88;3.50;;;;;;;;;;4916219;29;20616;-84
2021/08/19 12:00:04;;;;;;;4.38;3.97;;;;;;;;;;4915517;29;20206;-85
2021/08/19 12:02:33;;;;;;;5.00;4.60;;;;;;;;;;4915814;29;20194;-86
2021/08/19 12:05:08;;;;;;;4.60;4.20;;;;;;;;;;4915580;29;20234;-86
2021/08/19 12:07:38;;;;;;;5.00;4.05;;;;;;;;;;4916037;29;20186;-85
2021/08/19 12:10:08;;;;;;;4.82;4.40;;;;;;;;;;4916881;29;20669;-84
2021/08/19 12:12:37;;;;;;;5.50;4.35;;;;;;;;;;4916703;29;20194;-84
2021/08/19 12:15:06;;;;;;;5.00;4.50;;;;;;;;;;4918500;29;20730;-84
2021/08/19 12:17:36;;;;;;;4.28;3.97;;;;;;;;;;4920081;29;20229;-86
2021/08/19 12:20:12;;;;;;;4.68;4.28;;;;;;;;;;4919201;29;20793;-86
2021/08/19 12:22:40;;;;;;;5.38;4.88;;;;;;;;;;4920668;29;20228;-85
2021/08/19 12:25:16;;;;;;;5.13;4.72;;;;;;;;;;4920248;29;20732;-86
2021/08/19 12:27:44;;;;;;;5.38;4.97;;;;;;;;;;4920334;29;20559;-86
2021/08/19 12:30:12;;;;;;;4.43;4.10;;;;;;;;;;4920746;29;20202;-84
2021/08/19 12:32:44;;;;;;;5.55;5.05;;;;;;;;;;4920937;29;20213;-85
2021/08/19 12:35:14;;;;;;;5.03;4.63;;;;;;;;;;4922063;29;20230;-85
2021/08/19 12:37:54;;;;;;;4.10;3.80;;;;;;;;;;4920829;29;20203;-88
2021/08/19 12:40:28;;;;;;;3.40;3.17;;;;;;;;;;4922481;29;20688;-85
2021/08/19 12:43:06;;;;;;;4.10;3.80;;;;;;;;;;4921749;29;20195;-85
2021/08/19 12:45:34;;;;;;;4.38;3.95;;;;;;;;;;4923087;29;20222;-85
2021/08/19 12:48:05;;;;;;;4.78;4.38;;;;;;;;;;4928007;29;20202;-85
2021/08/19 12:50:33;;;;;;;4.00;3.70;;;;;;;;;;4934512;29;20191;-84
2021/08/19 12:53:08;;;;;;;4.30;4.00;;;;;;;;;;4927058;29;20205;-84
2021/08/19 12:55:35;;;;;;;4.93;4.45;;;;;;;;;;4918658;29;20240;-84
2021/08/19 12:58:04;;;;;;;3.85;3.55;;;;;;;;;;4919426;29;20183;-85
2021/08/19 13:00:35;;;;;;;3.20;2.97;;;;;;;;;;4907162;29;20211;-88
2021/08/19 13:03:06;;;;;;;4.72;3.40;;;;;;;;;;4899778;29;20197;-84
2021/08/19 13:05:35;;;;;;;3.28;3.00;;;;;;;;;;4899345;29;20698;-84
2021/08/19 13:08:05;;;;;;;3.38;3.17;;;;;;;;;;4900095;29;20286;-85
2021/08/19 13:10:34;;;;;;;4.15;3.83;;;;;;;;;;4911404;29;20193;-85
2021/08/19 13:13:02;;;;;;;5.30;4.45;;;;;;;;;;4918450;29;20202;-84
2021/08/19 13:15:31;;;;;;;4.97;4.00;;;;;;;;;;4918164;29;20702;-84
2021/08/19 13:17:59;;;;;;;3.30;3.10;;;;;;;;;;4918364;29;20646;-84
2021/08/19 13:20:28;;;;;;;4.40;4.07;;;;;;;;;;4918660;29;20290;-84
2021/08/19 13:22:56;;;;;;;3.90;3.60;;;;;;;;;;4918393;29;20194;-84
2021/08/19 13:25:23;;;;;;;3.40;3.13;;;;;;;;;;4917694;29;20232;-84
2021/08/19 13:27:51;;;;;;;3.40;3.20;;;;;;;;;;4918680;29;20193;-83
2021/08/19 13:30:22;;;;;;;4.82;4.45;;;;;;;;;;4910032;29;20694;-84
2021/08/19 13:32:52;;;;;;;5.22;4.82;;;;;;;;;;4901716;29;20233;-84
2021/08/19 13:35:19;;;;;;;5.10;4.70;;;;;;;;;;4900068;29;20291;-83
2021/08/19 13:37:48;;;;;;;5.05;4.65;;;;;;;;;;4899144;29;20194;-83
2021/08/19 13:40:16;;;;;;;5.85;5.35;;;;;;;;;;4908155;29;20209;-84
2021/08/19 13:42:43;;;;;;;5.80;5.30;;;;;;;;;;4918562;29;20202;-83
2021/08/19 13:45:12;;;;;;;6.05;5.55;;;;;;;;;;4917728;29;20227;-83
2021/08/19 13:47:41;;;;;;;6.35;5.75;;;;;;;;;;4917737;29;20203;-83
2021/08/19 13:50:10;;;;;;;6.60;6.00;;;;;;;;;;4917995;29;20202;-84
2021/08/19 13:52:38;;;;;;;4.10;3.80;;;;;;;;;;4918619;29;20657;-84
2021/08/19 13:55:08;;;;;;;4.70;4.40;;;;;;;;;;4937013;29;20241;-84
2021/08/19 13:57:36;;;;;;;5.28;4.78;;;;;;;;;;4937163;29;20209;-85
2021/08/19 14:00:05;;;;;;;4.13;3.83;;;;;;;;;;4929286;29;20901;-83
2021/08/19 14:02:32;;;;;;;3.83;3.53;;;;;;;;;;4918882;29;20211;-83
2021/08/19 14:05:02;;;;;;;4.30;3.97;;;;;;;;;;4918221;29;20226;-83
2021/08/19 14:07:30;;;;;;;4.40;4.00;;;;;;;;;;4918597;29;20193;-83
2021/08/19 14:09:59;;;;;;;4.38;4.00;;;;;;;;;;4924816;29;20192;-84
2021/08/19 14:12:28;;;;;;;3.35;3.10;;;;;;;;;;4937056;29;20208;-84
2021/08/19 14:15:02;;;;;;;4.93;4.53;;;;;;;;;;4936784;29;20612;-83
2021/08/19 14:17:31;;;;;;;5.55;5.15;;;;;;;;;;4937211;29;20199;-84
2021/08/19 14:20:02;;;;;;;6.45;5.72;;;;;;;;;;4929433;29;20203;-84
2021/08/19 14:22:32;;;;;;;5.13;4.70;;;;;;;;;;4917587;29;20643;-85
2021/08/19 14:25:00;;;;;;;6.53;5.93;;;;;;;;;;4917868;29;20239;-85
2021/08/19 14:27:29;;;;;;;6.57;5.97;;;;;;;;;;4917420;29;20190;-85
2021/08/19 14:29:57;;;;;;;6.32;5.78;;;;;;;;;;4924569;29;20197;-84
2021/08/19 14:32:25;;;;;;;4.88;4.47;;;;;;;;;;4936595;29;20205;-84
2021/08/19 14:34:53;;;;;;;5.65;5.15;;;;;;;;;;4936399;29;20220;-85
2021/08/19 14:37:21;;;;;;;4.85;4.45;;;;;;;;;;4936158;29;20201;-84
2021/08/19 14:39:49;;;;;;;5.75;5.25;;;;;;;;;;4930402;29;20670;-85
2021/08/19 14:42:16;;;;;;;6.53;5.97;;;;;;;;;;4917474;29;20197;-84
2021/08/19 14:44:45;;;;;;;8.88;5.90;;;;;;;;;;4917016;29;20222;-83
2021/08/19 14:47:12;;;;;;;6.30;5.80;;;;;;;;;;4916908;29;20213;-85
2021/08/19 14:49:40;;;;;;;5.53;5.03;;;;;;;;;;4921470;29;20208;-85
2021/08/19 14:52:08;;;;;;;5.78;5.28;;;;;;;;;;4935931;29;20206;-85
2021/08/19 14:54:35;;;;;;;4.30;4.00;;;;;;;;;;4935336;29;20240;-84
2021/08/19 14:57:04;;;;;;;4.43;4.13;;;;;;;;;;4935705;29;20711;-85
2021/08/19 14:59:34;;;;;;;3.47;3.17;;;;;;;;;;4932510;29;20658;-85
2021/08/19 15:02:04;;;;;;;4.35;3.78;;;;;;;;;;4917246;29;20293;-84
2021/08/19 15:04:33;;;;;;;5.03;4.63;;;;;;;;;;4917512;29;20230;-84
2021/08/19 15:07:01;;;;;;;5.85;5.35;;;;;;;;;;4917726;29;20190;-84
2021/08/19 15:09:30;;;;;;;5.72;5.22;;;;;;;;;;4920515;29;20190;-85
2021/08/19 15:11:58;;;;;;;6.45;5.88;;;;;;;;;;4936376;29;20194;-86
2021/08/19 15:14:25;;;;;;;5.43;5.03;;;;;;;;;;4935728;29;20216;-84
2021/08/19 15:16:53;;;;;;;5.78;5.28;;;;;;;;;;4935391;29;20240;-84
2021/08/19 15:19:22;;;;;;;6.05;5.55;;;;;;;;;;4932777;29;20193;-84
2021/08/19 15:21:49;;;;;;;5.35;4.95;;;;;;;;;;4899921;29;20183;-84